Blooming Prairie, Minnesota
Current Conditions -  °F | °C
As of 9:34 AM on Friday 28 Nov 2014 (Local Time) from KTOB Reporting Station
Clear Clear  
Wind Chill:   Ceiling: Unl
Heat Index: 18°   Visibility: 10mi
Dew Point: 12°   Wind: 16mph
Humidity: 79%   Direction: 170°S
Pressure: 29.93"   Gusts: 21mph
Location:  43.87°N, 93.05°W
Report Text: KTOB 281534Z AUTO 17014G18KT 10SM CLR M08/M11 A2993 RMK AO2
Loading
Personal Weather Stations






























Interactive Weather Map New forecast layout! Learn more

10-Day Weather Forecast

Advertisements
Track Severe Weather on mobile